WetterOnline ( https://www.wetteronline.ch )

Wetter aktuell Freiburg

Aktuelles Wetter: Feldberg/Schwarzwald (1493m)

6-stündlich | Neueste Meldungen
Ortszeit Temperatur Wetter
Mi, 19.06. 2:00 15.0° C bewölkt
Di, 18.06. 20:00 16.9° C bedeckt
Di, 18.06. 14:00 17.7° C wolkenlos
Di, 18.06. 8:00 15.5° C wolkenlos
Di, 18.06. 2:00 12.8° C wolkenlos
Mo, 17.06. 20:00 15.2° C bewölkt
Mo, 17.06. 14:00 14.2° C fast wolkenlos
Mo, 17.06. 8:00 8.8° C wolkenlos
Ortszeit Temperatur Wetter
Mi, 19.06. 5:00 15.6° C wolkenlos
Mi, 19.06. 4:50 15.6° C wolkenlos
Mi, 19.06. 4:40 15.6° C leicht bewölkt
Mi, 19.06. 4:30 15.4° C leicht bewölkt
Mi, 19.06. 4:20 15.4° C leicht bewölkt
Mi, 19.06. 4:10 15.2° C wolkenlos
Mi, 19.06. 4:00 15.2° C wolkenlos
Mi, 19.06. 3:30 15.2° C wolkenlos
Mi, 19.06. 3:00 15.4° C leicht bewölkt
Mi, 19.06. 2:30 15.4° C bewölkt
Mi, 19.06. 2:00 15.0° C bewölkt
Ortszeit Relative Feuchte Sichtweite
Mi, 19.06. 2:00 60% >70 km
Di, 18.06. 20:00 51% >70 km
Di, 18.06. 14:00 40% 45 km
Di, 18.06. 8:00 47% 60 km
Di, 18.06. 2:00 84% 26 km
Mo, 17.06. 20:00 71% 45 km
Mo, 17.06. 14:00 56% >70 km
Mo, 17.06. 8:00 81% >70 km
Ortszeit Relative Feuchte Sichtweite
Mi, 19.06. 5:00 55% 60 km
Mi, 19.06. 4:50 55% -
Mi, 19.06. 4:40 55% -
Mi, 19.06. 4:30 58% 55 km
Mi, 19.06. 4:20 58% -
Mi, 19.06. 4:10 59% -
Mi, 19.06. 4:00 57% 65 km
Mi, 19.06. 3:30 55% 60 km
Mi, 19.06. 3:00 56% 60 km
Mi, 19.06. 2:30 56% 60 km
Mi, 19.06. 2:00 60% >70 km
Ortszeit Niederschlagsmenge Niederschlagsart
Mi, 19.06. 2:00 0.0 l/m2 in 6 Std. -
Di, 18.06. 20:00 0.1 l/m2 in 12 Std. Sprühregen
Di, 18.06. 14:00 0.0 l/m2 in 6 Std. -
Di, 18.06. 8:00 0.0 l/m2 in 12 Std. -
Di, 18.06. 2:00 0.0 l/m2 in 6 Std. -
Mo, 17.06. 20:00 0.1 l/m2 in 12 Std. Regen
Mo, 17.06. 14:00 0.0 l/m2 in 6 Std. -
Mo, 17.06. 8:00 0.0 l/m2 in 12 Std. -
Ortszeit Niederschlagsmenge Niederschlagsart
Mi, 19.06. 5:00 0.0 l/m2 in 1 Std. -
Mi, 19.06. 4:50 keine Meldung -
Mi, 19.06. 4:40 keine Meldung -
Mi, 19.06. 4:30 0.0 l/m2 in 1 Std. -
Mi, 19.06. 4:20 keine Meldung -
Mi, 19.06. 4:10 keine Meldung -
Mi, 19.06. 4:00 0.0 l/m2 in 1 Std. -
Mi, 19.06. 3:30 0.0 l/m2 in 1 Std. -
Mi, 19.06. 3:00 0.0 l/m2 in 1 Std. -
Mi, 19.06. 2:30 0.0 l/m2 in 1 Std. -
Mi, 19.06. 2:00 0.0 l/m2 in 1 Std. -
Ortszeit Stärke Spitze Richtung
km/h Bft. km/h Grad Sektor
Mi, 19.06. 2:00 24 4 33 180° S
Di, 18.06. 20:00 7 2 32 280° W
Di, 18.06. 14:00 20 4 35 200° S
Di, 18.06. 8:00 4 1 25 290° W
Di, 18.06. 2:00 18 3 32 130° SO
Mo, 17.06. 20:00 11 2 36 100° O
Mo, 17.06. 14:00 22 4 61 100° O
Mo, 17.06. 8:00 43 6 54 90° O
Ortszeit Stärke Spitze Richtung
km/h Bft. km/h Grad Sektor
Mi, 19.06. 5:00 29 5 32 210° SW
Mi, 19.06. 4:50 29 5 - 210° SW
Mi, 19.06. 4:40 26 4 - 210° SW
Mi, 19.06. 4:30 25 4 32 200° S
Mi, 19.06. 4:20 25 4 - 200° S
Mi, 19.06. 4:10 25 4 - 200° S
Mi, 19.06. 4:00 26 4 35 200° S
Mi, 19.06. 3:30 26 4 35 190° S
Mi, 19.06. 3:00 26 4 33 190° S
Mi, 19.06. 2:30 25 4 32 190° S
Mi, 19.06. 2:00 24 4 33 180° S
Ortszeit Untergrenze Bedeckung Gattung
total tief tief mittel hoch
Mi, 19.06. 2:00 4500 m 7/8 7/8 - - -
Di, 18.06. 20:00 4800 m 8/8 8/8 - - -
Di, 18.06. 14:00 - 0/8 0/8 - - -
Di, 18.06. 8:00 - 0/8 0/8 - - -
Di, 18.06. 2:00 - 0/8 0/8 - - -
Mo, 17.06. 20:00 630 m 7/8 7/8 - - -
Mo, 17.06. 14:00 4200 m 1/8 1/8 - - -
Mo, 17.06. 8:00 10500 m 0/8 0/8 - - -
Ortszeit Bedeckungsgrad in Achtel und Wolkenuntergrenze
Mi, 19.06. 5:00 keine Wolken
Mi, 19.06. 4:50 keine Wolken
Mi, 19.06. 4:40 2(2700m)
Mi, 19.06. 4:30 4(2700m)
Mi, 19.06. 4:20 4(2700m)
Mi, 19.06. 4:10 keine Wolken
Mi, 19.06. 4:00 keine Wolken
Mi, 19.06. 3:30 keine Wolken
Mi, 19.06. 3:00 2(3900m)
Mi, 19.06. 2:30 7(3900m) 7(4500m)
Mi, 19.06. 2:00 4(4500m) 7(6900m)
Ortszeit Stationsdruck (hPa) Tendenz (hPa in 3 Std.)
Mi, 19.06. 2:00 851 - 0,8
Di, 18.06. 20:00 852 - 0,3
Di, 18.06. 14:00 853 - 0,2
Di, 18.06. 8:00 853 + 0,2
Di, 18.06. 2:00 853 - 0,2
Mo, 17.06. 20:00 854 - 0,4
Mo, 17.06. 14:00 854 + 0,3
Mo, 17.06. 8:00 854 - 0,2
Ortszeit Stationsdruck (hPa) Tendenz (hPa in 3 Std.)
Mi, 19.06. 5:00 850 - 1,1
Mi, 19.06. 4:50 850 keine Meldung
Mi, 19.06. 4:40 850 keine Meldung
Mi, 19.06. 4:30 850 - 1,2
Mi, 19.06. 4:20 850 keine Meldung
Mi, 19.06. 4:10 850 keine Meldung
Mi, 19.06. 4:00 850 - 1,4
Mi, 19.06. 3:30 850 - 1,5
Mi, 19.06. 3:00 851 - 1,3
Mi, 19.06. 2:30 851 - 0,9
Mi, 19.06. 2:00 851 - 0,8
Ortszeit Schneehöhe (cm)
Mi, 19.06. 2:00 0
Di, 18.06. 20:00 0
Di, 18.06. 14:00 0
Di, 18.06. 8:00 0
Di, 18.06. 2:00 0
Mo, 17.06. 20:00 0
Mo, 17.06. 14:00 0
Mo, 17.06. 8:00 0
Ortszeit Schneehöhe (cm)
Mi, 19.06. 5:00 0
Mi, 19.06. 4:50 0
Mi, 19.06. 4:40 0
Mi, 19.06. 4:30 0
Mi, 19.06. 4:20 0
Mi, 19.06. 4:10 0
Mi, 19.06. 4:00 0
Mi, 19.06. 3:30 0
Mi, 19.06. 3:00 0
Mi, 19.06. 2:30 0
Mi, 19.06. 2:00 0
Link zu dieser Seite / Seite empfehlen

Das Wetter in ...